Time;durP1;ratioP1;P1;durP2;ratioP2;P2;SDS_P1;SDS_P2;PMS_P1;PMS_P2;Temp;Humidity;BMP_temperature;BMP_pressure;BME280_temperature;BME280_humidity;BME280_pressure;Samples;Min_cycle;Max_cycle;Signal;HPM_P1;HPM_P2
2022/01/21 00:00:19;;;;;;;;;;;;;;;;;;5071853;28;19925;-78
2022/01/21 00:02:45;;;;;;;;;;;;;;;;;;5063534;28;20746;-78
2022/01/21 00:05:11;;;;;;;;;;;;;;;;;;5055331;28;19920;-78
2022/01/21 00:07:38;;;;;;;;;;;;;;;;;;5066679;28;19963;-78
2022/01/21 00:10:04;;;;;;;;;;;;;;;;;;5073759;28;19931;-78
2022/01/21 00:12:31;;;;;;;;;;;;;;;;;;5050706;28;20260;-78
2022/01/21 00:14:58;;;;;;;;;;;;;;;;;;5072814;28;19921;-79
2022/01/21 00:17:25;;;;;;;;;;;;;;;;;;5068881;28;19924;-78
2022/01/21 00:30:04;;;;;;;;;;;;;;;;;;5071314;28;19930;-78
2022/01/21 00:30:56;;;;;;;;;;;;;;;;;;5071906;28;19928;-78
2022/01/21 00:33:22;;;;;;;;;;;;;;;;;;5071847;28;19924;-78
2022/01/21 00:36:05;;;;;;;;;;;;;;;;;;5075414;28;19934;-78
2022/01/21 00:38:33;;;;;;;;;;;;;;;;;;5069878;28;19955;-78
2022/01/21 00:41:03;;;;;;;;;;;;;;;;;;5069193;28;19966;-78
2022/01/21 00:43:32;;;;;;;;;;;;;;;;;;5065674;28;19964;-78
2022/01/21 00:46:02;;;;;;;;;;;;;;;;;;5071505;28;19967;-78
2022/01/21 00:48:43;;;;;;;;;;;;;;;;;;5011954;28;19999;-78
2022/01/21 00:51:09;;;;;;;;;;;;;;;;;;5030082;28;19927;-78
2022/01/21 00:53:35;;;;;;;;;;;;;;;;;;5023520;28;19925;-78
2022/01/21 00:56:01;;;;;;;;;;;;;;;;;;5029257;28;19948;-78
2022/01/21 00:58:27;;;;;;;;;;;;;;;;;;5023823;28;20735;-79
2022/01/21 01:00:53;;;;;;;;;;;;;;;;;;5034608;28;19967;-79
2022/01/21 01:03:20;;;;;;;;;;;;;;;;;;5034148;28;20022;-79
2022/01/21 01:05:46;;;;;;;;;;;;;;;;;;5012930;28;19928;-78
2022/01/21 01:08:12;;;;;;;;;;;;;;;;;;5014509;28;19925;-78
2022/01/21 01:21:59;;;;;;;;;;;;;;;;;;5031061;28;19927;-79
2022/01/21 01:29:57;;;;;;;;;;;;;;;;;;5070212;28;19935;-78
2022/01/21 01:32:26;;;;;;;;;;;;;;;;;;5067790;28;19923;-79
2022/01/21 01:34:53;;;;;;;;;;;;;;;;;;5073633;28;20430;-79
2022/01/21 01:41:13;;;;;;;;;;;;;;;;;;5085848;28;19924;-78
2022/01/21 01:49:23;;;;;;;;;;;;;;;;;;5054985;28;19935;-78
2022/01/21 01:51:29;;;;;;;;;;;;;;;;;;5067936;28;20010;-78
2022/01/21 01:53:55;;;;;;;;;;;;;;;;;;5071994;28;19983;-79
2022/01/21 01:56:24;;;;;;;;;;;;;;;;;;5087405;28;19924;-79
2022/01/21 01:58:50;;;;;;;;;;;;;;;;;;5073918;28;19938;-79
2022/01/21 02:01:16;;;;;;;;;;;;;;;;;;5056760;28;19928;-79
2022/01/21 02:03:42;;;;;;;;;;;;;;;;;;5069846;28;19927;-78
2022/01/21 02:06:20;;;;;;;;;;;;;;;;;;5069335;28;19924;-78
2022/01/21 02:08:46;;;;;;;;;;;;;;;;;;5065011;28;19934;-78
2022/01/21 02:11:12;;;;;;;;;;;;;;;;;;5051708;28;19970;-78
2022/01/21 02:13:43;;;;;;;;;;;;;;;;;;5063673;28;19931;-78
2022/01/21 02:16:19;;;;;;;;;;;;;;;;;;5066460;28;20282;-78
2022/01/21 02:21:32;;;;;;;;;;;;;;;;;;5064901;28;19947;-78
2022/01/21 02:24:04;;;;;;;;;;;;;;;;;;5066156;28;20669;-78
2022/01/21 02:26:35;;;;;;;;;;;;;;;;;;5081417;28;19915;-78
2022/01/21 02:29:03;;;;;;;;;;;;;;;;;;5072962;28;19942;-78
2022/01/21 02:31:30;;;;;;;;;;;;;;;;;;5063776;28;20005;-78
2022/01/21 02:33:56;;;;;;;;;;;;;;;;;;5051088;28;19928;-78
2022/01/21 02:36:31;;;;;;;;;;;;;;;;;;5083148;28;20015;-78
2022/01/21 02:39:12;;;;;;;;;;;;;;;;;;5022513;28;20216;-79
2022/01/21 02:41:38;;;;;;;;;;;;;;;;;;4984097;28;20018;-80
2022/01/21 02:44:05;;;;;;;;;;;;;;;;;;5005888;28;20062;-80
2022/01/21 02:46:36;;;;;;;;;;;;;;;;;;4997119;28;19925;-80
2022/01/21 02:49:14;;;;;;;;;;;;;;;;;;5023880;28;19928;-80
2022/01/21 02:51:40;;;;;;;;;;;;;;;;;;5016534;28;20760;-80
2022/01/21 02:54:06;;;;;;;;;;;;;;;;;;5024091;28;20383;-80
2022/01/21 02:56:33;;;;;;;;;;;;;;;;;;5022947;28;20338;-80
2022/01/21 02:58:59;;;;;;;;;;;;;;;;;;5016236;28;19979;-79
2022/01/21 03:01:25;;;;;;;;;;;;;;;;;;5025917;28;19924;-79
2022/01/21 03:04:06;;;;;;;;;;;;;;;;;;4991606;28;20422;-79
2022/01/21 03:06:33;;;;;;;;;;;;;;;;;;4991063;28;19922;-79
2022/01/21 03:08:59;;;;;;;;;;;;;;;;;;4995456;28;19926;-79
2022/01/21 03:11:26;;;;;;;;;;;;;;;;;;5005506;28;20282;-79
2022/01/21 03:13:52;;;;;;;;;;;;;;;;;;5009811;28;19931;-79
2022/01/21 03:16:18;;;;;;;;;;;;;;;;;;5012177;28;19925;-79
2022/01/21 03:18:44;;;;;;;;;;;;;;;;;;5008776;28;19933;-79
2022/01/21 03:21:25;;;;;;;;;;;;;;;;;;4979193;28;19970;-79
2022/01/21 03:23:51;;;;;;;;;;;;;;;;;;4995653;28;19956;-78
2022/01/21 03:26:17;;;;;;;;;;;;;;;;;;4963852;28;19929;-79
2022/01/21 03:28:44;;;;;;;;;;;;;;;;;;4973580;28;20746;-78
2022/01/21 03:31:10;;;;;;;;;;;;;;;;;;4986469;28;20047;-79
2022/01/21 03:33:36;;;;;;;;;;;;;;;;;;4988786;28;19926;-78
2022/01/21 03:36:02;;;;;;;;;;;;;;;;;;5039395;28;19936;-78
2022/01/21 03:38:28;;;;;;;;;;;;;;;;;;5044570;28;19942;-78
2022/01/21 03:40:55;;;;;;;;;;;;;;;;;;5044722;28;19932;-78
2022/01/21 03:43:21;;;;;;;;;;;;;;;;;;5046598;28;19972;-78
2022/01/21 03:45:51;;;;;;;;;;;;;;;;;;4997624;28;19975;-78
2022/01/21 03:48:17;;;;;;;;;;;;;;;;;;5010732;28;19924;-78
2022/01/21 03:50:43;;;;;;;;;;;;;;;;;;5006279;28;19928;-78
2022/01/21 03:53:09;;;;;;;;;;;;;;;;;;5065730;28;19955;-79
2022/01/21 03:55:39;;;;;;;;;;;;;;;;;;5064082;28;19932;-77
2022/01/21 03:58:05;;;;;;;;;;;;;;;;;;5068193;28;19924;-79
2022/01/21 04:00:31;;;;;;;;;;;;;;;;;;5079582;28;19996;-78
2022/01/21 04:02:57;;;;;;;;;;;;;;;;;;5088685;28;19947;-78
2022/01/21 04:05:24;;;;;;;;;;;;;;;;;;5087433;28;19931;-78
2022/01/21 04:07:50;;;;;;;;;;;;;;;;;;5093769;28;20626;-78
2022/01/21 04:10:17;;;;;;;;;;;;;;;;;;5061300;28;19926;-78
2022/01/21 04:12:43;;;;;;;;;;;;;;;;;;5067102;28;20534;-78
2022/01/21 04:15:09;;;;;;;;;;;;;;;;;;5051449;28;19928;-78
2022/01/21 04:17:54;;;;;;;;;;;;;;;;;;5011874;28;20008;-78
2022/01/21 04:20:21;;;;;;;;;;;;;;;;;;5005843;28;19967;-77
2022/01/21 04:22:47;;;;;;;;;;;;;;;;;;5005364;28;19925;-78
2022/01/21 04:25:13;;;;;;;;;;;;;;;;;;5017204;28;19936;-78
2022/01/21 04:27:39;;;;;;;;;;;;;;;;;;5003683;28;20410;-78
2022/01/21 04:30:05;;;;;;;;;;;;;;;;;;4977175;28;19936;-78
2022/01/21 04:32:31;;;;;;;;;;;;;;;;;;5010623;28;19921;-78
2022/01/21 04:34:58;;;;;;;;;;;;;;;;;;5000037;28;20007;-78
2022/01/21 04:37:26;;;;;;;;;;;;;;;;;;5012400;28;19933;-78
2022/01/21 04:40:03;;;;;;;;;;;;;;;;;;5000716;28;19928;-78
2022/01/21 04:48:00;;;;;;;;;;;;;;;;;;5024095;28;19925;-79
2022/01/21 04:50:39;;;;;;;;;;;;;;;;;;5080313;28;20257;-78
2022/01/21 04:53:07;;;;;;;;;;;;;;;;;;5066972;28;19920;-79
2022/01/21 04:55:33;;;;;;;;;;;;;;;;;;5064884;28;19927;-79
2022/01/21 04:57:59;;;;;;;;;;;;;;;;;;5085816;28;19920;-77
2022/01/21 05:00:26;;;;;;;;;;;;;;;;;;5058638;28;19932;-78
2022/01/21 05:02:52;;;;;;;;;;;;;;;;;;5048719;28;19987;-78
2022/01/21 05:05:18;;;;;;;;;;;;;;;;;;5058720;28;19924;-77
2022/01/21 05:07:44;;;;;;;;;;;;;;;;;;5065477;28;21369;-77
2022/01/21 05:10:28;;;;;;;;;;;;;;;;;;5026495;28;19925;-77
2022/01/21 05:12:55;;;;;;;;;;;;;;;;;;5015254;28;19920;-77
2022/01/21 05:16:11;;;;;;;;;;;;;;;;;;5012487;28;20000;-78
2022/01/21 05:18:08;;;;;;;;;;;;;;;;;;5004401;28;19964;-80
2022/01/21 05:20:34;;;;;;;;;;;;;;;;;;5019732;28;19929;-78
2022/01/21 05:23:00;;;;;;;;;;;;;;;;;;5010283;28;19924;-78
2022/01/21 05:25:45;;;;;;;;;;;;;;;;;;5011509;28;20499;-77
2022/01/21 05:28:12;;;;;;;;;;;;;;;;;;4995012;28;20043;-78
2022/01/21 05:30:39;;;;;;;;;;;;;;;;;;5011202;28;20375;-78
2022/01/21 05:33:05;;;;;;;;;;;;;;;;;;5028830;28;19921;-78
2022/01/21 05:35:31;;;;;;;;;;;;;;;;;;4993405;28;19939;-78
2022/01/21 05:38:00;;;;;;;;;;;;;;;;;;5030170;28;19925;-78
2022/01/21 05:40:26;;;;;;;;;;;;;;;;;;5009149;28;21337;-77
2022/01/21 05:42:53;;;;;;;;;;;;;;;;;;5065912;28;19933;-77
2022/01/21 05:48:05;;;;;;;;;;;;;;;;;;5067666;28;19999;-78
2022/01/21 05:50:32;;;;;;;;;;;;;;;;;;5046508;28;20285;-78
2022/01/21 05:53:01;;;;;;;;;;;;;;;;;;5064449;28;19924;-77
2022/01/21 05:55:28;;;;;;;;;;;;;;;;;;5060932;28;20401;-78
2022/01/21 05:58:09;;;;;;;;;;;;;;;;;;5029571;28;19925;-77
2022/01/21 06:00:39;;;;;;;;;;;;;;;;;;5023842;28;19928;-78
2022/01/21 06:03:06;;;;;;;;;;;;;;;;;;5009689;28;19933;-77
2022/01/21 06:05:47;;;;;;;;;;;;;;;;;;5022522;28;19928;-77
2022/01/21 06:08:14;;;;;;;;;;;;;;;;;;5010619;28;19929;-78
2022/01/21 06:10:40;;;;;;;;;;;;;;;;;;5020590;28;20640;-77
2022/01/21 06:13:06;;;;;;;;;;;;;;;;;;5011355;28;19940;-78
2022/01/21 06:15:32;;;;;;;;;;;;;;;;;;5021426;28;19925;-78
2022/01/21 06:17:59;;;;;;;;;;;;;;;;;;5007971;28;20651;-78
2022/01/21 06:20:34;;;;;;;;;;;;;;;;;;5027820;28;19971;-77
2022/01/21 06:23:00;;;;;;;;;;;;;;;;;;4991473;28;20689;-78
2022/01/21 06:25:26;;;;;;;;;;;;;;;;;;5010073;28;19931;-77
2022/01/21 06:27:52;;;;;;;;;;;;;;;;;;5008771;28;19925;-77
2022/01/21 06:30:18;;;;;;;;;;;;;;;;;;5063684;28;19958;-77
2022/01/21 06:33:02;;;;;;;;;;;;;;;;;;5044763;28;19929;-77
2022/01/21 06:35:28;;;;;;;;;;;;;;;;;;5042271;28;19921;-77
2022/01/21 06:37:53;;;;;;;;;;;;;;;;;;5043762;28;19924;-77
2022/01/21 06:40:20;;;;;;;;;;;;;;;;;;5012455;28;19931;-78
2022/01/21 06:42:47;;;;;;;;;;;;;;;;;;5030261;28;19928;-77
2022/01/21 06:45:13;;;;;;;;;;;;;;;;;;5047076;28;19931;-77
2022/01/21 06:47:39;;;;;;;;;;;;;;;;;;5028452;28;19929;-78
2022/01/21 06:50:06;;;;;;;;;;;;;;;;;;5030553;28;19920;-78
2022/01/21 06:52:38;;;;;;;;;;;;;;;;;;5044207;28;19974;-78
2022/01/21 06:55:04;;;;;;;;;;;;;;;;;;5046762;28;19972;-77
2022/01/21 06:57:30;;;;;;;;;;;;;;;;;;5043764;28;20027;-77
2022/01/21 06:59:56;;;;;;;;;;;;;;;;;;5045796;28;19924;-77
2022/01/21 07:02:23;;;;;;;;;;;;;;;;;;5029599;28;19932;-77
2022/01/21 07:04:49;;;;;;;;;;;;;;;;;;5070795;28;19919;-77
2022/01/21 07:07:16;;;;;;;;;;;;;;;;;;5078171;28;19923;-77
2022/01/21 07:09:42;;;;;;;;;;;;;;;;;;5066496;28;20468;-77
2022/01/21 07:12:08;;;;;;;;;;;;;;;;;;5076233;28;19927;-77
2022/01/21 07:14:34;;;;;;;;;;;;;;;;;;5079646;28;20281;-77
2022/01/21 07:17:00;;;;;;;;;;;;;;;;;;5074122;28;19928;-77
2022/01/21 07:19:31;;;;;;;;;;;;;;;;;;5073700;28;19931;-77
2022/01/21 07:21:58;;;;;;;;;;;;;;;;;;5080744;28;19970;-76
2022/01/21 07:24:23;;;;;;;;;;;;;;;;;;5075713;28;19923;-76
2022/01/21 07:26:49;;;;;;;;;;;;;;;;;;5083108;28;19934;-75
2022/01/21 07:29:16;;;;;;;;;;;;;;;;;;5056503;28;19969;-76
2022/01/21 07:31:43;;;;;;;;;;;;;;;;;;5067526;28;19924;-76
2022/01/21 07:34:08;;;;;;;;;;;;;;;;;;5062757;28;20018;-76
2022/01/21 07:36:35;;;;;;;;;;;;;;;;;;5071376;28;20019;-76
2022/01/21 07:39:05;;;;;;;;;;;;;;;;;;5080559;28;19920;-76
2022/01/21 07:41:32;;;;;;;;;;;;;;;;;;5070328;28;20039;-76
2022/01/21 07:43:58;;;;;;;;;;;;;;;;;;5059072;28;20280;-76
2022/01/21 07:46:28;;;;;;;;;;;;;;;;;;5083087;28;19928;-76
2022/01/21 07:48:56;;;;;;;;;;;;;;;;;;5076832;28;19924;-76
2022/01/21 07:51:23;;;;;;;;;;;;;;;;;;5073314;28;19927;-76
2022/01/21 07:53:49;;;;;;;;;;;;;;;;;;5099165;28;20366;-76
2022/01/21 07:56:15;;;;;;;;;;;;;;;;;;5081536;28;19973;-76
2022/01/21 07:58:42;;;;;;;;;;;;;;;;;;5068638;28;19924;-78
2022/01/21 08:01:07;;;;;;;;;;;;;;;;;;5076092;28;19927;-78
2022/01/21 08:03:34;;;;;;;;;;;;;;;;;;5071441;28;19955;-76
2022/01/21 08:06:00;;;;;;;;;;;;;;;;;;5076317;28;19927;-76
2022/01/21 08:08:26;;;;;;;;;;;;;;;;;;5080436;28;19924;-76
2022/01/21 08:10:52;;;;;;;;;;;;;;;;;;5082542;28;19930;-76
2022/01/21 08:13:18;;;;;;;;;;;;;;;;;;5067642;28;20010;-76
2022/01/21 08:15:44;;;;;;;;;;;;;;;;;;5081917;28;19928;-76
2022/01/21 08:18:12;;;;;;;;;;;;;;;;;;5082907;28;19934;-76
2022/01/21 08:20:38;;;;;;;;;;;;;;;;;;5079994;28;20291;-76
2022/01/21 08:23:04;;;;;;;;;;;;;;;;;;5085817;28;19959;-76
2022/01/21 08:25:30;;;;;;;;;;;;;;;;;;5063059;28;19920;-76
2022/01/21 08:27:57;;;;;;;;;;;;;;;;;;5098849;28;19935;-76
2022/01/21 08:30:24;;;;;;;;;;;;;;;;;;5096946;28;20204;-76
2022/01/21 08:32:50;;;;;;;;;;;;;;;;;;5080217;28;19984;-76
2022/01/21 08:35:16;;;;;;;;;;;;;;;;;;5095741;28;19919;-76
2022/01/21 08:37:42;;;;;;;;;;;;;;;;;;5079409;28;19995;-76
2022/01/21 08:40:08;;;;;;;;;;;;;;;;;;5079627;28;19923;-75
2022/01/21 08:42:34;;;;;;;;;;;;;;;;;;5101763;27;20051;-75
2022/01/21 08:45:00;;;;;;;;;;;;;;;;;;5076525;28;20365;-77
2022/01/21 08:47:26;;;;;;;;;;;;;;;;;;5059476;28;20006;-77
2022/01/21 08:49:59;;;;;;;;;;;;;;;;;;5090588;28;19928;-77
2022/01/21 08:52:29;;;;;;;;;;;;;;;;;;5093623;28;20564;-77
2022/01/21 08:54:55;;;;;;;;;;;;;;;;;;5099630;28;20286;-76
2022/01/21 08:57:37;;;;;;;;;;;;;;;;;;5091861;28;19946;-76
2022/01/21 09:00:23;;;;;;;;;;;;;;;;;;5074761;28;19931;-76
2022/01/21 09:02:54;;;;;;;;;;;;;;;;;;5075621;28;19947;-76
2022/01/21 09:05:20;;;;;;;;;;;;;;;;;;5078676;28;20022;-76
2022/01/21 09:07:46;;;;;;;;;;;;;;;;;;5075407;28;19938;-76
2022/01/21 09:10:12;;;;;;;;;;;;;;;;;;5077412;28;20445;-77
2022/01/21 09:12:38;;;;;;;;;;;;;;;;;;5075405;28;20006;-77
2022/01/21 09:15:04;;;;;;;;;;;;;;;;;;5098680;28;19926;-77
2022/01/21 09:17:31;;;;;;;;;;;;;;;;;;5059614;28;19927;-77
2022/01/21 09:19:57;;;;;;;;;;;;;;;;;;5070600;28;19920;-77
2022/01/21 09:22:24;;;;;;;;;;;;;;;;;;5068374;28;20386;-78
2022/01/21 09:24:52;;;;;;;;;;;;;;;;;;5100482;27;19966;-77
2022/01/21 09:27:18;;;;;;;;;;;;;;;;;;5094635;28;19966;-77
2022/01/21 09:29:44;;;;;;;;;;;;;;;;;;5089971;28;21203;-76
2022/01/21 09:32:10;;;;;;;;;;;;;;;;;;5075611;27;19924;-76
2022/01/21 09:34:36;;;;;;;;;;;;;;;;;;5091240;28;19920;-77
2022/01/21 09:37:03;;;;;;;;;;;;;;;;;;5103518;28;20315;-77
2022/01/21 09:39:29;;;;;;;;;;;;;;;;;;5080595;28;20011;-77
2022/01/21 09:41:57;;;;;;;;;;;;;;;;;;5103306;27;20011;-77
2022/01/21 09:44:23;;;;;;;;;;;;;;;;;;5099682;28;19924;-77
2022/01/21 09:46:51;;;;;;;;;;;;;;;;;;5073707;28;20324;-77
2022/01/21 09:49:26;;;;;;;;;;;;;;;;;;5100144;28;19949;-77
2022/01/21 09:51:53;;;;;;;;;;;;;;;;;;5064315;28;19946;-77
2022/01/21 09:54:20;;;;;;;;;;;;;;;;;;5082238;28;19923;-77
2022/01/21 09:56:47;;;;;;;;;;;;;;;;;;5075662;28;20008;-77
2022/01/21 09:59:13;;;;;;;;;;;;;;;;;;5078200;28;19932;-77
2022/01/21 10:01:40;;;;;;;;;;;;;;;;;;5071278;28;20588;-77
2022/01/21 10:04:06;;;;;;;;;;;;;;;;;;5082221;28;20478;-77
2022/01/21 10:06:33;;;;;;;;;;;;;;;;;;5080418;28;19916;-77
2022/01/21 10:08:59;;;;;;;;;;;;;;;;;;5083841;28;19924;-77
2022/01/21 10:11:25;;;;;;;;;;;;;;;;;;5097909;28;19931;-77
2022/01/21 10:13:52;;;;;;;;;;;;;;;;;;5080955;28;19923;-77
2022/01/21 10:16:18;;;;;;;;;;;;;;;;;;5101175;28;19988;-77
2022/01/21 10:18:44;;;;;;;;;;;;;;;;;;5066637;28;19955;-77
2022/01/21 10:21:12;;;;;;;;;;;;;;;;;;5088106;28;19931;-77
2022/01/21 10:23:38;;;;;;;;;;;;;;;;;;5083771;28;19933;-77
2022/01/21 10:26:04;;;;;;;;;;;;;;;;;;5085053;28;19923;-77
2022/01/21 10:28:45;;;;;;;;;;;;;;;;;;5058109;28;19935;-77
2022/01/21 10:31:11;;;;;;;;;;;;;;;;;;5061719;28;20286;-78
2022/01/21 10:33:39;;;;;;;;;;;;;;;;;;5043652;28;19925;-78
2022/01/21 10:36:04;;;;;;;;;;;;;;;;;;5026277;28;20295;-78
2022/01/21 10:38:31;;;;;;;;;;;;;;;;;;5023951;28;19936;-77
2022/01/21 10:40:58;;;;;;;;;;;;;;;;;;5044787;28;20339;-78
2022/01/21 10:43:24;;;;;;;;;;;;;;;;;;5040979;28;19951;-78
2022/01/21 10:45:50;;;;;;;;;;;;;;;;;;5045487;28;19925;-78
2022/01/21 10:48:16;;;;;;;;;;;;;;;;;;5028120;28;20060;-77
2022/01/21 10:50:42;;;;;;;;;;;;;;;;;;5037701;28;19924;-77
2022/01/21 10:53:08;;;;;;;;;;;;;;;;;;5043216;28;20565;-78
2022/01/21 10:55:34;;;;;;;;;;;;;;;;;;5029202;28;19928;-78
2022/01/21 10:58:00;;;;;;;;;;;;;;;;;;5022417;28;19924;-79
2022/01/21 11:00:26;;;;;;;;;;;;;;;;;;5061360;28;19932;-77
2022/01/21 11:02:54;;;;;;;;;;;;;;;;;;5073816;28;19928;-78
2022/01/21 11:05:22;;;;;;;;;;;;;;;;;;5079472;28;19939;-78
2022/01/21 11:08:00;;;;;;;;;;;;;;;;;;5077750;28;19920;-78
2022/01/21 11:10:47;;;;;;;;;;;;;;;;;;5077049;28;20393;-78
2022/01/21 11:13:23;;;;;;;;;;;;;;;;;;5064469;28;19931;-78
2022/01/21 11:15:59;;;;;;;;;;;;;;;;;;5077774;28;19952;-78
2022/01/21 11:18:25;;;;;;;;;;;;;;;;;;5071979;28;19924;-78
2022/01/21 11:20:56;;;;;;;;;;;;;;;;;;5068526;28;19920;-79
2022/01/21 11:23:24;;;;;;;;;;;;;;;;;;5084489;28;20065;-79
2022/01/21 11:25:52;;;;;;;;;;;;;;;;;;5079042;28;19927;-80
2022/01/21 11:28:18;;;;;;;;;;;;;;;;;;5076905;28;20306;-79
2022/01/21 11:30:44;;;;;;;;;;;;;;;;;;5076664;28;19928;-79
2022/01/21 11:33:10;;;;;;;;;;;;;;;;;;5058069;28;19916;-79
2022/01/21 11:35:36;;;;;;;;;;;;;;;;;;5059626;28;19944;-79
2022/01/21 11:38:03;;;;;;;;;;;;;;;;;;5080666;28;20015;-79
2022/01/21 11:40:30;;;;;;;;;;;;;;;;;;5073530;28;19920;-79
2022/01/21 11:42:56;;;;;;;;;;;;;;;;;;5078526;28;19971;-79
2022/01/21 11:50:52;;;;;;;;;;;;;;;;;;5075819;28;19924;-79
2022/01/21 11:53:33;;;;;;;;;;;;;;;;;;5051118;28;19931;-80
2022/01/21 11:55:59;;;;;;;;;;;;;;;;;;5038777;28;19924;-80
2022/01/21 11:58:25;;;;;;;;;;;;;;;;;;5040472;28;19927;-81
2022/01/21 12:00:52;;;;;;;;;;;;;;;;;;5022654;28;19929;-79
2022/01/21 12:03:22;;;;;;;;;;;;;;;;;;5054125;28;19940;-80
2022/01/21 12:05:50;;;;;;;;;;;;;;;;;;5051870;28;20383;-80
2022/01/21 12:08:16;;;;;;;;;;;;;;;;;;5043899;28;19916;-80
2022/01/21 12:10:42;;;;;;;;;;;;;;;;;;5020305;28;19924;-80
2022/01/21 12:13:19;;;;;;;;;;;;;;;;;;5056416;28;19931;-80
2022/01/21 12:20:43;;;;;;;;;;;;;;;;;;5053461;28;21966;-80
2022/01/21 12:23:11;;;;;;;;;;;;;;;;;;5057738;28;19968;-79
2022/01/21 12:25:38;;;;;;;;;;;;;;;;;;5071193;28;19949;-79
2022/01/21 12:28:04;;;;;;;;;;;;;;;;;;5080423;28;20014;-80
2022/01/21 12:30:31;;;;;;;;;;;;;;;;;;5071154;28;20012;-79
2022/01/21 12:32:59;;;;;;;;;;;;;;;;;;5075103;28;19923;-79
2022/01/21 12:35:25;;;;;;;;;;;;;;;;;;5071264;28;19931;-79
2022/01/21 12:38:04;;;;;;;;;;;;;;;;;;5072969;28;20020;-79
2022/01/21 12:40:31;;;;;;;;;;;;;;;;;;5069126;28;20001;-79
2022/01/21 12:42:57;;;;;;;;;;;;;;;;;;5078360;28;20394;-79
2022/01/21 12:45:24;;;;;;;;;;;;;;;;;;5072347;28;20011;-80
2022/01/21 12:47:50;;;;;;;;;;;;;;;;;;5074147;28;20025;-79
2022/01/21 12:50:26;;;;;;;;;;;;;;;;;;5071962;28;19925;-78
2022/01/21 12:53:06;;;;;;;;;;;;;;;;;;5073852;28;19967;-77
2022/01/21 12:58:18;;;;;;;;;;;;;;;;;;5074131;28;19951;-78
2022/01/21 13:00:44;;;;;;;;;;;;;;;;;;5065304;28;19932;-78
2022/01/21 13:03:10;;;;;;;;;;;;;;;;;;5075132;28;19938;-78
2022/01/21 13:05:48;;;;;;;;;;;;;;;;;;5082846;28;19923;-78
2022/01/21 13:08:14;;;;;;;;;;;;;;;;;;5082102;28;20021;-78
2022/01/21 13:10:40;;;;;;;;;;;;;;;;;;5076006;28;19927;-78
2022/01/21 13:15:33;;;;;;;;;;;;;;;;;;5078328;28;19943;-78
2022/01/21 13:18:00;;;;;;;;;;;;;;;;;;5082064;28;19920;-78
2022/01/21 13:20:27;;;;;;;;;;;;;;;;;;5075591;28;19924;-79
2022/01/21 13:22:54;;;;;;;;;;;;;;;;;;5080707;28;20007;-78
2022/01/21 13:25:22;;;;;;;;;;;;;;;;;;5081619;28;20452;-78
2022/01/21 13:27:48;;;;;;;;;;;;;;;;;;5063810;28;19966;-78
2022/01/21 13:30:15;;;;;;;;;;;;;;;;;;5081588;28;20087;-78
2022/01/21 13:32:41;;;;;;;;;;;;;;;;;;5076329;28;20753;-78
2022/01/21 13:35:09;;;;;;;;;;;;;;;;;;5077256;28;19924;-78
2022/01/21 13:37:36;;;;;;;;;;;;;;;;;;5077578;28;20294;-78
2022/01/21 13:40:05;;;;;;;;;;;;;;;;;;5064838;28;20332;-78
2022/01/21 13:42:32;;;;;;;;;;;;;;;;;;5072182;28;19969;-78
2022/01/21 13:45:04;;;;;;;;;;;;;;;;;;5082262;28;20290;-78
2022/01/21 13:47:31;;;;;;;;;;;;;;;;;;5073185;28;19920;-78
2022/01/21 13:49:59;;;;;;;;;;;;;;;;;;5076047;28;20388;-78
2022/01/21 13:52:25;;;;;;;;;;;;;;;;;;5059618;28;19927;-78
2022/01/21 13:54:51;;;;;;;;;;;;;;;;;;5080730;28;20393;-78
2022/01/21 13:57:17;;;;;;;;;;;;;;;;;;5082329;28;20418;-78
2022/01/21 13:59:43;;;;;;;;;;;;;;;;;;5079456;28;20024;-78
2022/01/21 14:02:09;;;;;;;;;;;;;;;;;;5096771;28;19923;-78
2022/01/21 14:04:36;;;;;;;;;;;;;;;;;;5080851;28;19928;-78
2022/01/21 14:07:02;;;;;;;;;;;;;;;;;;5102748;28;19924;-78
2022/01/21 14:09:28;;;;;;;;;;;;;;;;;;5075912;28;20010;-78
2022/01/21 14:11:54;;;;;;;;;;;;;;;;;;5095968;28;20026;-78
2022/01/21 14:14:24;;;;;;;;;;;;;;;;;;5103033;28;20308;-78
2022/01/21 14:16:53;;;;;;;;;;;;;;;;;;5080625;28;20004;-78
2022/01/21 14:19:20;;;;;;;;;;;;;;;;;;5083087;28;19920;-78
2022/01/21 14:21:50;;;;;;;;;;;;;;;;;;5098422;28;19927;-78
2022/01/21 14:24:16;;;;;;;;;;;;;;;;;;5063770;28;22545;-78
2022/01/21 14:26:42;;;;;;;;;;;;;;;;;;5072442;28;19927;-78
2022/01/21 14:29:09;;;;;;;;;;;;;;;;;;5083488;28;19931;-78
2022/01/21 14:31:35;;;;;;;;;;;;;;;;;;5081629;28;20262;-78
2022/01/21 14:34:01;;;;;;;;;;;;;;;;;;5067329;28;20663;-79
2022/01/21 14:36:27;;;;;;;;;;;;;;;;;;5063676;28;19924;-77
2022/01/21 14:39:09;;;;;;;;;;;;;;;;;;5036589;28;19921;-77
2022/01/21 14:41:35;;;;;;;;;;;;;;;;;;5015753;28;20390;-77
2022/01/21 14:44:01;;;;;;;;;;;;;;;;;;5021442;28;19933;-78
2022/01/21 14:46:28;;;;;;;;;;;;;;;;;;5032299;28;19972;-77
2022/01/21 14:48:55;;;;;;;;;;;;;;;;;;5037464;28;19920;-77
2022/01/21 14:51:24;;;;;;;;;;;;;;;;;;5017344;28;19925;-77
2022/01/21 14:53:55;;;;;;;;;;;;;;;;;;5018819;28;19967;-77
2022/01/21 14:56:22;;;;;;;;;;;;;;;;;;5027535;28;19929;-77
2022/01/21 14:58:49;;;;;;;;;;;;;;;;;;5010224;28;20051;-77
2022/01/21 15:01:16;;;;;;;;;;;;;;;;;;5014907;28;19947;-77
2022/01/21 15:03:51;;;;;;;;;;;;;;;;;;5026623;28;21575;-78
2022/01/21 15:06:27;;;;;;;;;;;;;;;;;;5033804;28;20377;-77
2022/01/21 15:08:58;;;;;;;;;;;;;;;;;;5017784;28;19921;-78
2022/01/21 15:16:37;;;;;;;;;;;;;;;;;;5068512;28;19928;-76
2022/01/21 15:19:03;;;;;;;;;;;;;;;;;;5070826;28;19924;-77
2022/01/21 15:21:29;;;;;;;;;;;;;;;;;;5068801;28;20433;-78
2022/01/21 15:23:56;;;;;;;;;;;;;;;;;;5079260;28;19981;-77
2022/01/21 15:26:22;;;;;;;;;;;;;;;;;;5073635;28;19920;-79
2022/01/21 15:28:48;;;;;;;;;;;;;;;;;;5070218;28;20350;-78
2022/01/21 15:31:15;;;;;;;;;;;;;;;;;;5069832;28;19977;-77
2022/01/21 15:33:41;;;;;;;;;;;;;;;;;;5052741;28;20427;-77
2022/01/21 15:36:07;;;;;;;;;;;;;;;;;;5058940;28;19986;-77
2022/01/21 15:38:33;;;;;;;;;;;;;;;;;;5072405;28;19928;-77
2022/01/21 15:41:00;;;;;;;;;;;;;;;;;;5060836;28;20062;-77
2022/01/21 15:43:26;;;;;;;;;;;;;;;;;;5056224;28;19935;-77
2022/01/21 15:45:52;;;;;;;;;;;;;;;;;;5078259;28;19920;-77
2022/01/21 15:48:18;;;;;;;;;;;;;;;;;;5072251;28;20551;-77
2022/01/21 15:50:45;;;;;;;;;;;;;;;;;;5073498;28;19929;-77
2022/01/21 15:53:13;;;;;;;;;;;;;;;;;;5072152;28;19925;-78
2022/01/21 15:55:40;;;;;;;;;;;;;;;;;;5072188;28;22283;-78
2022/01/21 15:58:15;;;;;;;;;;;;;;;;;;5065239;28;20297;-79
2022/01/21 16:00:42;;;;;;;;;;;;;;;;;;5061763;28;20388;-79
2022/01/21 16:03:10;;;;;;;;;;;;;;;;;;5067035;28;19928;-76
2022/01/21 16:05:37;;;;;;;;;;;;;;;;;;5062598;28;19920;-78
2022/01/21 16:08:04;;;;;;;;;;;;;;;;;;5051007;28;19976;-78
2022/01/21 16:10:30;;;;;;;;;;;;;;;;;;5044453;28;20002;-78
2022/01/21 16:13:00;;;;;;;;;;;;;;;;;;5065515;28;19928;-78
2022/01/21 16:15:26;;;;;;;;;;;;;;;;;;5048198;28;20302;-79
2022/01/21 16:18:07;;;;;;;;;;;;;;;;;;5043953;28;20011;-78
2022/01/21 16:20:33;;;;;;;;;;;;;;;;;;5038142;28;20369;-78
2022/01/21 16:22:59;;;;;;;;;;;;;;;;;;5047753;28;19933;-79
2022/01/21 16:25:25;;;;;;;;;;;;;;;;;;5027165;28;20047;-79
2022/01/21 16:27:52;;;;;;;;;;;;;;;;;;5050781;28;19935;-78
2022/01/21 16:30:18;;;;;;;;;;;;;;;;;;5032842;28;19924;-78
2022/01/21 16:32:47;;;;;;;;;;;;;;;;;;5047495;28;20551;-79
2022/01/21 16:35:14;;;;;;;;;;;;;;;;;;5034908;28;19929;-81
2022/01/21 16:37:44;;;;;;;;;;;;;;;;;;5029027;28;19938;-80
2022/01/21 16:40:10;;;;;;;;;;;;;;;;;;5027607;28;19987;-81
2022/01/21 16:42:38;;;;;;;;;;;;;;;;;;5043084;28;20035;-81
2022/01/21 16:45:09;;;;;;;;;;;;;;;;;;5053035;28;19929;-82
2022/01/21 16:47:47;;;;;;;;;;;;;;;;;;5046042;28;19932;-81
2022/01/21 16:50:13;;;;;;;;;;;;;;;;;;5052136;28;19928;-81
2022/01/21 16:52:40;;;;;;;;;;;;;;;;;;5054232;28;19924;-82
2022/01/21 16:55:07;;;;;;;;;;;;;;;;;;5070783;28;19927;-81
2022/01/21 16:57:34;;;;;;;;;;;;;;;;;;5064562;28;19932;-82
2022/01/21 17:00:01;;;;;;;;;;;;;;;;;;5079658;28;19928;-81
2022/01/21 17:02:28;;;;;;;;;;;;;;;;;;5067917;28;19923;-81
2022/01/21 17:04:54;;;;;;;;;;;;;;;;;;5093804;28;19924;-81
2022/01/21 17:07:22;;;;;;;;;;;;;;;;;;5096440;28;20400;-81
2022/01/21 17:09:48;;;;;;;;;;;;;;;;;;5075241;28;20056;-82
2022/01/21 17:12:15;;;;;;;;;;;;;;;;;;5090028;28;20509;-82
2022/01/21 17:14:44;;;;;;;;;;;;;;;;;;5066695;28;20389;-82
2022/01/21 17:17:11;;;;;;;;;;;;;;;;;;5091160;28;19923;-82
2022/01/21 17:19:38;;;;;;;;;;;;;;;;;;5067316;27;20288;-83
2022/01/21 17:22:04;;;;;;;;;;;;;;;;;;5087783;28;20026;-84
2022/01/21 17:24:30;;;;;;;;;;;;;;;;;;5066546;28;20331;-83
2022/01/21 17:26:58;;;;;;;;;;;;;;;;;;5089276;28;19934;-82
2022/01/21 17:29:25;;;;;;;;;;;;;;;;;;5083837;28;20337;-83
2022/01/21 17:31:52;;;;;;;;;;;;;;;;;;5074493;28;19924;-84
2022/01/21 17:34:18;;;;;;;;;;;;;;;;;;5072004;28;19920;-82
2022/01/21 17:36:44;;;;;;;;;;;;;;;;;;5087956;27;20011;-83
2022/01/21 17:39:14;;;;;;;;;;;;;;;;;;5076606;28;19959;-83
2022/01/21 17:41:41;;;;;;;;;;;;;;;;;;5068601;28;19987;-82
2022/01/21 17:44:11;;;;;;;;;;;;;;;;;;5087458;28;20231;-83
2022/01/21 17:46:40;;;;;;;;;;;;;;;;;;5071836;28;19928;-83
2022/01/21 17:49:06;;;;;;;;;;;;;;;;;;5068508;28;19971;-82
2022/01/21 17:51:32;;;;;;;;;;;;;;;;;;5070169;28;19982;-84
2022/01/21 17:53:58;;;;;;;;;;;;;;;;;;5071926;28;19920;-84
2022/01/21 17:56:24;;;;;;;;;;;;;;;;;;5088624;28;20335;-84